Terminal Aerodrome Forecast
Issued by NWS

Home | Current Version | Previous Version | Text Only | Print | Product List | Glossary On
Versions: 1 2 3 4 5 6 7 8 9 10 11 12 13 14 15 16 17 18 19 20 21 22 23 24 25 26 27 28 29 30 31 32 33 34 35 36 37 38 39 40 41 42 43 44 45 46 47 48 49 50
000
FTUS45 KBOU 290530
TAFAPA
TAF
KAPA 290530Z 2906/3006 21006KT P6SM FEW200
     FM291500 VRB05KT P6SM FEW080 SCT160
     FM291800 12009KT P6SM SCT070 SCT160
     FM292100 07013KT P6SM SCT070 BKN140 PROB30 2921/3001 VRB15G25KT
      -TSRA BKN070CB
     FM300100 23011KT P6SM FEW070 SCT140 BKN220=

USA.gov is the U.S. government's official web portal to all federal, state and local government web resources and services.